sensor_id;sensor_type;location;lat;lon;timestamp;temperature;humidity
52675;DHT22;38569;52.722;6.440;2022-10-16T00:01:18;12.70;99.90
52675;DHT22;38569;52.722;6.440;2022-10-16T00:03:45;12.70;99.90
52675;DHT22;38569;52.722;6.440;2022-10-16T00:06:12;12.70;99.90
52675;DHT22;38569;52.722;6.440;2022-10-16T00:08:38;12.70;99.90
52675;DHT22;38569;52.722;6.440;2022-10-16T00:11:10;12.70;99.90
52675;DHT22;38569;52.722;6.440;2022-10-16T00:13:38;12.70;99.90
52675;DHT22;38569;52.722;6.440;2022-10-16T00:16:04;12.70;99.90
52675;DHT22;38569;52.722;6.440;2022-10-16T00:18:30;12.70;99.90
52675;DHT22;38569;52.722;6.440;2022-10-16T00:21:04;12.70;99.90
52675;DHT22;38569;52.722;6.440;2022-10-16T00:23:31;12.70;99.90
52675;DHT22;38569;52.722;6.440;2022-10-16T00:25:59;12.60;99.90
52675;DHT22;38569;52.722;6.440;2022-10-16T00:28:25;12.60;99.90
52675;DHT22;38569;52.722;6.440;2022-10-16T00:30:51;12.60;99.90
52675;DHT22;38569;52.722;6.440;2022-10-16T00:33:17;12.60;99.90
52675;DHT22;38569;52.722;6.440;2022-10-16T00:35:43;12.50;99.90
52675;DHT22;38569;52.722;6.440;2022-10-16T00:38:09;12.50;99.90
52675;DHT22;38569;52.722;6.440;2022-10-16T00:40:35;12.50;99.90
52675;DHT22;38569;52.722;6.440;2022-10-16T00:43:01;12.50;99.90
52675;DHT22;38569;52.722;6.440;2022-10-16T00:45:26;12.40;99.90
52675;DHT22;38569;52.722;6.440;2022-10-16T00:47:54;12.40;99.90
52675;DHT22;38569;52.722;6.440;2022-10-16T00:50:32;12.40;99.90
52675;DHT22;38569;52.722;6.440;2022-10-16T00:52:59;12.40;99.90
52675;DHT22;38569;52.722;6.440;2022-10-16T00:55:26;12.40;99.90
52675;DHT22;38569;52.722;6.440;2022-10-16T00:57:54;12.50;99.90
52675;DHT22;38569;52.722;6.440;2022-10-16T01:00:25;12.50;99.90
52675;DHT22;38569;52.722;6.440;2022-10-16T01:02:59;12.50;99.90
52675;DHT22;38569;52.722;6.440;2022-10-16T01:05:33;12.50;99.90
52675;DHT22;38569;52.722;6.440;2022-10-16T01:10:51;12.60;99.90
52675;DHT22;38569;52.722;6.440;2022-10-16T01:15:58;12.60;99.90
52675;DHT22;38569;52.722;6.440;2022-10-16T01:18:30;12.70;99.90
52675;DHT22;38569;52.722;6.440;2022-10-16T01:21:05;12.70;99.90
52675;DHT22;38569;52.722;6.440;2022-10-16T01:24:06;12.70;99.90
52675;DHT22;38569;52.722;6.440;2022-10-16T01:32:33;12.70;99.90
52675;DHT22;38569;52.722;6.440;2022-10-16T01:38:19;12.70;99.90
52675;DHT22;38569;52.722;6.440;2022-10-16T01:40:51;12.70;99.90
52675;DHT22;38569;52.722;6.440;2022-10-16T01:43:25;12.70;99.90
52675;DHT22;38569;52.722;6.440;2022-10-16T01:45:52;12.70;99.90
52675;DHT22;38569;52.722;6.440;2022-10-16T01:48:19;12.80;99.90
52675;DHT22;38569;52.722;6.440;2022-10-16T01:50:55;12.80;99.90
52675;DHT22;38569;52.722;6.440;2022-10-16T01:53:23;12.80;99.90
52675;DHT22;38569;52.722;6.440;2022-10-16T01:55:50;12.90;99.90
52675;DHT22;38569;52.722;6.440;2022-10-16T01:58:18;12.90;99.90
52675;DHT22;38569;52.722;6.440;2022-10-16T02:00:45;12.90;99.90
52675;DHT22;38569;52.722;6.440;2022-10-16T02:03:14;12.90;99.90
52675;DHT22;38569;52.722;6.440;2022-10-16T02:05:45;12.90;99.90
52675;DHT22;38569;52.722;6.440;2022-10-16T02:08:11;12.80;99.90
52675;DHT22;38569;52.722;6.440;2022-10-16T02:10:38;12.80;99.90
52675;DHT22;38569;52.722;6.440;2022-10-16T02:13:10;12.80;99.90
52675;DHT22;38569;52.722;6.440;2022-10-16T02:15:38;12.80;99.90
52675;DHT22;38569;52.722;6.440;2022-10-16T02:18:05;12.80;99.90
52675;DHT22;38569;52.722;6.440;2022-10-16T02:20:43;12.80;99.90
52675;DHT22;38569;52.722;6.440;2022-10-16T02:23:14;12.80;99.90
52675;DHT22;38569;52.722;6.440;2022-10-16T02:25:45;12.80;99.90
52675;DHT22;38569;52.722;6.440;2022-10-16T02:28:17;12.80;99.90
52675;DHT22;38569;52.722;6.440;2022-10-16T02:31:04;12.80;99.90
52675;DHT22;38569;52.722;6.440;2022-10-16T02:33:32;12.90;99.90
52675;DHT22;38569;52.722;6.440;2022-10-16T02:35:59;12.90;99.90
52675;DHT22;38569;52.722;6.440;2022-10-16T02:38:25;13.00;99.90
52675;DHT22;38569;52.722;6.440;2022-10-16T02:40:52;12.90;99.90
52675;DHT22;38569;52.722;6.440;2022-10-16T02:43:18;13.00;99.90
52675;DHT22;38569;52.722;6.440;2022-10-16T02:45:44;13.00;99.90
52675;DHT22;38569;52.722;6.440;2022-10-16T02:48:10;12.90;99.90
52675;DHT22;38569;52.722;6.440;2022-10-16T02:50:36;12.90;99.90
52675;DHT22;38569;52.722;6.440;2022-10-16T02:53:01;13.00;99.90
52675;DHT22;38569;52.722;6.440;2022-10-16T02:55:27;12.90;99.90
52675;DHT22;38569;52.722;6.440;2022-10-16T02:57:53;12.90;99.90
52675;DHT22;38569;52.722;6.440;2022-10-16T03:00:19;12.90;99.90
52675;DHT22;38569;52.722;6.440;2022-10-16T03:02:45;12.90;99.90
52675;DHT22;38569;52.722;6.440;2022-10-16T03:05:12;12.90;99.90
52675;DHT22;38569;52.722;6.440;2022-10-16T03:07:38;12.90;99.90
52675;DHT22;38569;52.722;6.440;2022-10-16T03:10:04;12.90;99.90
52675;DHT22;38569;52.722;6.440;2022-10-16T03:12:30;12.90;99.90
52675;DHT22;38569;52.722;6.440;2022-10-16T03:14:56;13.00;99.90
52675;DHT22;38569;52.722;6.440;2022-10-16T03:17:22;13.00;99.90
52675;DHT22;38569;52.722;6.440;2022-10-16T03:19:48;13.00;99.90
52675;DHT22;38569;52.722;6.440;2022-10-16T03:22:14;13.00;99.90
52675;DHT22;38569;52.722;6.440;2022-10-16T03:24:40;12.90;99.90
52675;DHT22;38569;52.722;6.440;2022-10-16T03:27:06;12.90;99.90
52675;DHT22;38569;52.722;6.440;2022-10-16T03:29:32;13.00;99.90
52675;DHT22;38569;52.722;6.440;2022-10-16T03:31:58;13.00;99.90
52675;DHT22;38569;52.722;6.440;2022-10-16T03:34:25;12.90;99.90
52675;DHT22;38569;52.722;6.440;2022-10-16T03:36:51;12.90;99.90
52675;DHT22;38569;52.722;6.440;2022-10-16T03:39:17;12.90;99.90
52675;DHT22;38569;52.722;6.440;2022-10-16T03:41:43;12.90;99.90
52675;DHT22;38569;52.722;6.440;2022-10-16T03:44:08;12.90;99.90
52675;DHT22;38569;52.722;6.440;2022-10-16T03:46:34;12.90;99.90
52675;DHT22;38569;52.722;6.440;2022-10-16T03:49:00;12.90;99.90
52675;DHT22;38569;52.722;6.440;2022-10-16T03:51:25;12.90;99.90
52675;DHT22;38569;52.722;6.440;2022-10-16T03:53:51;12.90;99.90
52675;DHT22;38569;52.722;6.440;2022-10-16T03:56:17;12.80;99.90
52675;DHT22;38569;52.722;6.440;2022-10-16T03:58:43;12.80;99.90
52675;DHT22;38569;52.722;6.440;2022-10-16T04:01:08;12.70;99.90
52675;DHT22;38569;52.722;6.440;2022-10-16T04:03:34;12.70;99.90
52675;DHT22;38569;52.722;6.440;2022-10-16T04:06:00;12.60;99.90
52675;DHT22;38569;52.722;6.440;2022-10-16T04:08:25;12.50;99.90
52675;DHT22;38569;52.722;6.440;2022-10-16T04:10:51;12.50;99.90
52675;DHT22;38569;52.722;6.440;2022-10-16T04:13:17;12.50;99.90
52675;DHT22;38569;52.722;6.440;2022-10-16T04:15:44;12.40;99.90
52675;DHT22;38569;52.722;6.440;2022-10-16T04:18:11;12.40;99.90
52675;DHT22;38569;52.722;6.440;2022-10-16T04:20:37;12.30;99.90
52675;DHT22;38569;52.722;6.440;2022-10-16T04:23:02;12.40;99.90
52675;DHT22;38569;52.722;6.440;2022-10-16T04:25:28;12.30;99.90
52675;DHT22;38569;52.722;6.440;2022-10-16T04:27:54;12.40;99.90
52675;DHT22;38569;52.722;6.440;2022-10-16T04:30:21;12.30;99.90
52675;DHT22;38569;52.722;6.440;2022-10-16T04:32:51;12.40;99.90
52675;DHT22;38569;52.722;6.440;2022-10-16T04:35:18;12.50;99.90
52675;DHT22;38569;52.722;6.440;2022-10-16T04:37:44;12.50;99.90
52675;DHT22;38569;52.722;6.440;2022-10-16T04:40:10;12.50;99.90
52675;DHT22;38569;52.722;6.440;2022-10-16T04:42:36;12.50;99.90
52675;DHT22;38569;52.722;6.440;2022-10-16T04:45:02;12.50;99.90
52675;DHT22;38569;52.722;6.440;2022-10-16T04:47:28;12.60;99.90
52675;DHT22;38569;52.722;6.440;2022-10-16T04:49:54;12.50;99.90
52675;DHT22;38569;52.722;6.440;2022-10-16T04:52:19;12.60;99.90
52675;DHT22;38569;52.722;6.440;2022-10-16T04:54:47;12.60;99.90
52675;DHT22;38569;52.722;6.440;2022-10-16T04:57:12;12.60;99.90
52675;DHT22;38569;52.722;6.440;2022-10-16T04:59:38;12.60;99.90
52675;DHT22;38569;52.722;6.440;2022-10-16T05:02:04;12.60;99.90
52675;DHT22;38569;52.722;6.440;2022-10-16T05:04:29;12.60;99.90
52675;DHT22;38569;52.722;6.440;2022-10-16T05:06:55;12.50;99.90
52675;DHT22;38569;52.722;6.440;2022-10-16T05:09:21;12.50;99.90
52675;DHT22;38569;52.722;6.440;2022-10-16T05:11:47;12.50;99.90
52675;DHT22;38569;52.722;6.440;2022-10-16T05:14:12;12.50;99.90
52675;DHT22;38569;52.722;6.440;2022-10-16T05:16:38;12.50;99.90
52675;DHT22;38569;52.722;6.440;2022-10-16T05:19:04;12.50;99.90
52675;DHT22;38569;52.722;6.440;2022-10-16T05:21:29;12.50;99.90
52675;DHT22;38569;52.722;6.440;2022-10-16T05:23:55;12.50;99.90
52675;DHT22;38569;52.722;6.440;2022-10-16T05:26:21;12.40;99.90
52675;DHT22;38569;52.722;6.440;2022-10-16T05:28:47;12.40;99.90
52675;DHT22;38569;52.722;6.440;2022-10-16T05:31:12;12.40;99.90
52675;DHT22;38569;52.722;6.440;2022-10-16T05:33:38;12.30;99.90
52675;DHT22;38569;52.722;6.440;2022-10-16T05:36:06;12.40;99.90
52675;DHT22;38569;52.722;6.440;2022-10-16T05:38:33;12.40;99.90
52675;DHT22;38569;52.722;6.440;2022-10-16T05:40:59;12.40;99.90
52675;DHT22;38569;52.722;6.440;2022-10-16T05:43:27;12.50;99.90
52675;DHT22;38569;52.722;6.440;2022-10-16T05:46:01;12.40;99.90
52675;DHT22;38569;52.722;6.440;2022-10-16T05:48:27;12.40;99.90
52675;DHT22;38569;52.722;6.440;2022-10-16T05:51:00;12.30;99.90
52675;DHT22;38569;52.722;6.440;2022-10-16T05:53:31;12.30;99.90
52675;DHT22;38569;52.722;6.440;2022-10-16T05:55:57;12.40;99.90
52675;DHT22;38569;52.722;6.440;2022-10-16T05:58:24;12.40;99.90
52675;DHT22;38569;52.722;6.440;2022-10-16T06:01:00;12.30;99.90
52675;DHT22;38569;52.722;6.440;2022-10-16T06:03:27;12.30;99.90
52675;DHT22;38569;52.722;6.440;2022-10-16T06:05:53;12.30;99.90
52675;DHT22;38569;52.722;6.440;2022-10-16T06:08:20;12.40;99.90
52675;DHT22;38569;52.722;6.440;2022-10-16T06:10:46;12.30;99.90
52675;DHT22;38569;52.722;6.440;2022-10-16T06:13:13;12.40;99.90
52675;DHT22;38569;52.722;6.440;2022-10-16T06:15:40;12.30;99.90
52675;DHT22;38569;52.722;6.440;2022-10-16T06:18:08;12.30;99.90
52675;DHT22;38569;52.722;6.440;2022-10-16T06:20:34;12.30;99.90
52675;DHT22;38569;52.722;6.440;2022-10-16T06:23:00;12.40;99.90
52675;DHT22;38569;52.722;6.440;2022-10-16T06:25:26;12.40;99.90
52675;DHT22;38569;52.722;6.440;2022-10-16T06:27:51;12.50;99.90
52675;DHT22;38569;52.722;6.440;2022-10-16T06:30:17;12.50;99.90
52675;DHT22;38569;52.722;6.440;2022-10-16T06:32:43;12.50;99.90
52675;DHT22;38569;52.722;6.440;2022-10-16T06:35:08;12.50;99.90
52675;DHT22;38569;52.722;6.440;2022-10-16T06:37:34;12.60;99.90
52675;DHT22;38569;52.722;6.440;2022-10-16T06:40:00;12.60;99.90
52675;DHT22;38569;52.722;6.440;2022-10-16T06:42:26;12.60;99.90
52675;DHT22;38569;52.722;6.440;2022-10-16T06:44:51;12.70;99.90
52675;DHT22;38569;52.722;6.440;2022-10-16T06:47:17;12.70;99.90
52675;DHT22;38569;52.722;6.440;2022-10-16T06:49:43;12.80;99.90
52675;DHT22;38569;52.722;6.440;2022-10-16T06:52:08;12.80;99.90
52675;DHT22;38569;52.722;6.440;2022-10-16T06:54:34;12.90;99.90
52675;DHT22;38569;52.722;6.440;2022-10-16T06:57:00;12.90;99.90
52675;DHT22;38569;52.722;6.440;2022-10-16T06:59:27;13.00;99.90
52675;DHT22;38569;52.722;6.440;2022-10-16T07:01:53;13.10;99.90
52675;DHT22;38569;52.722;6.440;2022-10-16T07:04:18;13.10;99.90
52675;DHT22;38569;52.722;6.440;2022-10-16T07:06:44;13.10;99.90
52675;DHT22;38569;52.722;6.440;2022-10-16T07:09:10;13.20;99.90
52675;DHT22;38569;52.722;6.440;2022-10-16T07:11:38;13.20;99.90
52675;DHT22;38569;52.722;6.440;2022-10-16T07:14:04;13.20;99.90
52675;DHT22;38569;52.722;6.440;2022-10-16T07:16:31;13.20;99.90
52675;DHT22;38569;52.722;6.440;2022-10-16T07:18:59;13.30;99.90
52675;DHT22;38569;52.722;6.440;2022-10-16T07:21:27;13.40;99.90
52675;DHT22;38569;52.722;6.440;2022-10-16T07:23:59;13.40;99.90
52675;DHT22;38569;52.722;6.440;2022-10-16T07:26:25;13.50;99.90
52675;DHT22;38569;52.722;6.440;2022-10-16T07:28:51;13.50;99.90
52675;DHT22;38569;52.722;6.440;2022-10-16T07:31:19;13.60;99.90
52675;DHT22;38569;52.722;6.440;2022-10-16T07:33:46;13.70;99.90
52675;DHT22;38569;52.722;6.440;2022-10-16T07:36:14;13.70;99.90
52675;DHT22;38569;52.722;6.440;2022-10-16T07:38:40;13.70;99.90
52675;DHT22;38569;52.722;6.440;2022-10-16T07:41:11;13.80;99.90
52675;DHT22;38569;52.722;6.440;2022-10-16T07:43:37;13.80;99.90
52675;DHT22;38569;52.722;6.440;2022-10-16T07:46:02;13.80;99.90
52675;DHT22;38569;52.722;6.440;2022-10-16T07:48:30;13.90;99.90
52675;DHT22;38569;52.722;6.440;2022-10-16T07:51:00;13.90;99.90
52675;DHT22;38569;52.722;6.440;2022-10-16T07:53:27;13.90;99.90
52675;DHT22;38569;52.722;6.440;2022-10-16T07:55:56;14.00;99.90
52675;DHT22;38569;52.722;6.440;2022-10-16T07:58:23;14.00;99.90
52675;DHT22;38569;52.722;6.440;2022-10-16T08:00:48;14.00;99.90
52675;DHT22;38569;52.722;6.440;2022-10-16T08:03:14;14.10;99.90
52675;DHT22;38569;52.722;6.440;2022-10-16T08:05:40;14.20;99.90
52675;DHT22;38569;52.722;6.440;2022-10-16T08:08:05;14.20;99.90
52675;DHT22;38569;52.722;6.440;2022-10-16T08:10:31;14.30;99.90
52675;DHT22;38569;52.722;6.440;2022-10-16T08:12:57;14.40;99.90
52675;DHT22;38569;52.722;6.440;2022-10-16T08:15:24;14.40;99.90
52675;DHT22;38569;52.722;6.440;2022-10-16T08:17:57;14.40;99.90
52675;DHT22;38569;52.722;6.440;2022-10-16T08:20:23;14.40;99.90
52675;DHT22;38569;52.722;6.440;2022-10-16T08:22:49;14.40;99.90
52675;DHT22;38569;52.722;6.440;2022-10-16T08:25:15;14.50;99.90
52675;DHT22;38569;52.722;6.440;2022-10-16T08:27:41;14.50;99.90
52675;DHT22;38569;52.722;6.440;2022-10-16T08:30:07;14.60;99.90
52675;DHT22;38569;52.722;6.440;2022-10-16T08:32:33;14.70;99.90
52675;DHT22;38569;52.722;6.440;2022-10-16T08:34:59;14.70;99.90
52675;DHT22;38569;52.722;6.440;2022-10-16T08:37:24;14.70;99.90
52675;DHT22;38569;52.722;6.440;2022-10-16T08:39:51;14.70;99.90
52675;DHT22;38569;52.722;6.440;2022-10-16T08:42:44;14.60;99.90
52675;DHT22;38569;52.722;6.440;2022-10-16T08:45:44;14.60;99.90
52675;DHT22;38569;52.722;6.440;2022-10-16T08:48:34;14.50;99.90
52675;DHT22;38569;52.722;6.440;2022-10-16T08:51:02;14.40;99.90
52675;DHT22;38569;52.722;6.440;2022-10-16T08:53:33;14.30;99.90
52675;DHT22;38569;52.722;6.440;2022-10-16T08:56:02;14.30;99.90
52675;DHT22;38569;52.722;6.440;2022-10-16T08:58:29;14.40;99.90
52675;DHT22;38569;52.722;6.440;2022-10-16T09:01:01;14.40;99.90
52675;DHT22;38569;52.722;6.440;2022-10-16T09:04:12;14.40;99.90
52675;DHT22;38569;52.722;6.440;2022-10-16T09:22:42;14.80;99.90
52675;DHT22;38569;52.722;6.440;2022-10-16T09:25:17;14.90;99.90
52675;DHT22;38569;52.722;6.440;2022-10-16T09:27:47;15.00;99.90
52675;DHT22;38569;52.722;6.440;2022-10-16T09:30:18;15.30;99.90
52675;DHT22;38569;52.722;6.440;2022-10-16T09:32:47;16.40;99.90
52675;DHT22;38569;52.722;6.440;2022-10-16T09:35:17;17.60;99.90
52675;DHT22;38569;52.722;6.440;2022-10-16T09:37:45;18.60;99.90
52675;DHT22;38569;52.722;6.440;2022-10-16T09:40:23;19.10;99.90
52675;DHT22;38569;52.722;6.440;2022-10-16T09:42:49;19.30;99.90
52675;DHT22;38569;52.722;6.440;2022-10-16T09:45:23;19.90;99.90
52675;DHT22;38569;52.722;6.440;2022-10-16T09:47:49;20.20;99.90
52675;DHT22;38569;52.722;6.440;2022-10-16T09:50:28;20.50;99.90
52675;DHT22;38569;52.722;6.440;2022-10-16T09:53:12;20.70;99.90
52675;DHT22;38569;52.722;6.440;2022-10-16T09:55:48;21.00;99.90
52675;DHT22;38569;52.722;6.440;2022-10-16T09:58:15;21.00;99.90
52675;DHT22;38569;52.722;6.440;2022-10-16T10:00:48;21.20;99.90
52675;DHT22;38569;52.722;6.440;2022-10-16T10:03:33;21.10;99.90
52675;DHT22;38569;52.722;6.440;2022-10-16T10:06:25;21.10;99.90
52675;DHT22;38569;52.722;6.440;2022-10-16T10:09:02;21.00;99.90
52675;DHT22;38569;52.722;6.440;2022-10-16T10:17:19;20.80;99.90
52675;DHT22;38569;52.722;6.440;2022-10-16T10:19:55;20.90;99.90
52675;DHT22;38569;52.722;6.440;2022-10-16T10:22:25;20.40;99.90
52675;DHT22;38569;52.722;6.440;2022-10-16T10:24:56;20.50;99.90
52675;DHT22;38569;52.722;6.440;2022-10-16T10:27:28;20.90;99.90
52675;DHT22;38569;52.722;6.440;2022-10-16T10:30:18;21.40;99.90
52675;DHT22;38569;52.722;6.440;2022-10-16T10:35:28;21.60;99.90
52675;DHT22;38569;52.722;6.440;2022-10-16T10:43:44;21.80;99.90
52675;DHT22;38569;52.722;6.440;2022-10-16T10:56:59;20.60;99.90
52675;DHT22;38569;52.722;6.440;2022-10-16T11:02:41;20.80;99.90
52675;DHT22;38569;52.722;6.440;2022-10-16T11:05:38;21.30;99.90
52675;DHT22;38569;52.722;6.440;2022-10-16T11:11:00;21.60;99.40
52675;DHT22;38569;52.722;6.440;2022-10-16T11:13:46;21.70;99.30
52675;DHT22;38569;52.722;6.440;2022-10-16T11:16:22;21.90;99.30
52675;DHT22;38569;52.722;6.440;2022-10-16T11:21:19;21.20;99.90
52675;DHT22;38569;52.722;6.440;2022-10-16T11:24:14;21.10;99.90
52675;DHT22;38569;52.722;6.440;2022-10-16T11:26:43;20.80;99.90
52675;DHT22;38569;52.722;6.440;2022-10-16T11:29:24;20.70;99.90
52675;DHT22;38569;52.722;6.440;2022-10-16T11:31:57;21.00;99.90
52675;DHT22;38569;52.722;6.440;2022-10-16T11:34:29;20.70;99.90
52675;DHT22;38569;52.722;6.440;2022-10-16T11:37:09;21.00;99.90
52675;DHT22;38569;52.722;6.440;2022-10-16T11:39:38;21.40;99.90
52675;DHT22;38569;52.722;6.440;2022-10-16T11:47:27;21.90;97.70
52675;DHT22;38569;52.722;6.440;2022-10-16T11:50:01;21.10;99.30
52675;DHT22;38569;52.722;6.440;2022-10-16T11:53:30;21.20;99.70
52675;DHT22;38569;52.722;6.440;2022-10-16T11:55:54;21.40;99.30
52675;DHT22;38569;52.722;6.440;2022-10-16T11:58:50;21.10;99.30
52675;DHT22;38569;52.722;6.440;2022-10-16T12:01:36;21.10;99.90
52675;DHT22;38569;52.722;6.440;2022-10-16T12:07:05;20.40;99.90
52675;DHT22;38569;52.722;6.440;2022-10-16T12:09:33;20.60;99.80
52675;DHT22;38569;52.722;6.440;2022-10-16T12:12:00;20.30;99.70
52675;DHT22;38569;52.722;6.440;2022-10-16T12:14:34;19.90;99.90
52675;DHT22;38569;52.722;6.440;2022-10-16T12:17:33;19.60;99.90
52675;DHT22;38569;52.722;6.440;2022-10-16T12:22:41;19.60;99.90
52675;DHT22;38569;52.722;6.440;2022-10-16T12:25:37;19.50;99.90
52675;DHT22;38569;52.722;6.440;2022-10-16T12:28:20;19.40;99.90
52675;DHT22;38569;52.722;6.440;2022-10-16T12:31:01;19.70;99.90
52675;DHT22;38569;52.722;6.440;2022-10-16T12:33:30;19.50;99.90
52675;DHT22;38569;52.722;6.440;2022-10-16T12:35:58;19.10;99.90
52675;DHT22;38569;52.722;6.440;2022-10-16T12:38:47;19.20;99.90
52675;DHT22;38569;52.722;6.440;2022-10-16T12:41:27;19.10;99.90
52675;DHT22;38569;52.722;6.440;2022-10-16T12:43:54;19.10;99.90
52675;DHT22;38569;52.722;6.440;2022-10-16T12:46:23;19.00;99.90
52675;DHT22;38569;52.722;6.440;2022-10-16T12:48:49;19.00;99.90
52675;DHT22;38569;52.722;6.440;2022-10-16T13:10:26;18.80;99.90
52675;DHT22;38569;52.722;6.440;2022-10-16T13:13:41;18.90;99.90
52675;DHT22;38569;52.722;6.440;2022-10-16T13:19:14;19.10;99.90
52675;DHT22;38569;52.722;6.440;2022-10-16T13:24:49;19.70;99.90
52675;DHT22;38569;52.722;6.440;2022-10-16T13:27:56;19.70;98.60
52675;DHT22;38569;52.722;6.440;2022-10-16T13:30:30;19.70;98.50
52675;DHT22;38569;52.722;6.440;2022-10-16T13:33:12;19.80;99.30
52675;DHT22;38569;52.722;6.440;2022-10-16T13:35:55;19.90;98.70
52675;DHT22;38569;52.722;6.440;2022-10-16T13:38:23;19.90;98.30
52675;DHT22;38569;52.722;6.440;2022-10-16T13:43:20;20.00;97.90
52675;DHT22;38569;52.722;6.440;2022-10-16T13:45:56;19.90;97.60
52675;DHT22;38569;52.722;6.440;2022-10-16T13:48:22;19.80;96.80
52675;DHT22;38569;52.722;6.440;2022-10-16T13:51:21;19.80;97.00
52675;DHT22;38569;52.722;6.440;2022-10-16T13:53:47;19.70;96.80
52675;DHT22;38569;52.722;6.440;2022-10-16T13:56:15;19.70;97.60
52675;DHT22;38569;52.722;6.440;2022-10-16T13:58:41;19.80;97.40
52675;DHT22;38569;52.722;6.440;2022-10-16T14:01:42;19.80;97.60
52675;DHT22;38569;52.722;6.440;2022-10-16T14:04:13;19.80;96.70
52675;DHT22;38569;52.722;6.440;2022-10-16T14:06:44;19.60;97.10
52675;DHT22;38569;52.722;6.440;2022-10-16T14:09:23;19.40;96.90
52675;DHT22;38569;52.722;6.440;2022-10-16T14:11:55;19.30;97.30
52675;DHT22;38569;52.722;6.440;2022-10-16T14:14:23;19.30;97.90
52675;DHT22;38569;52.722;6.440;2022-10-16T14:16:49;19.30;98.30
52675;DHT22;38569;52.722;6.440;2022-10-16T14:19:23;19.30;98.50
52675;DHT22;38569;52.722;6.440;2022-10-16T14:21:50;19.30;98.40
52675;DHT22;38569;52.722;6.440;2022-10-16T14:24:27;19.20;98.20
52675;DHT22;38569;52.722;6.440;2022-10-16T14:26:53;19.20;98.50
52675;DHT22;38569;52.722;6.440;2022-10-16T14:29:23;19.20;98.70
52675;DHT22;38569;52.722;6.440;2022-10-16T14:31:59;19.10;98.80
52675;DHT22;38569;52.722;6.440;2022-10-16T14:34:30;19.20;99.00
52675;DHT22;38569;52.722;6.440;2022-10-16T14:37:13;19.20;99.10
52675;DHT22;38569;52.722;6.440;2022-10-16T14:39:42;19.20;99.20
52675;DHT22;38569;52.722;6.440;2022-10-16T14:42:15;19.00;98.70
52675;DHT22;38569;52.722;6.440;2022-10-16T14:44:43;18.90;99.50
52675;DHT22;38569;52.722;6.440;2022-10-16T14:47:13;18.80;99.80
52675;DHT22;38569;52.722;6.440;2022-10-16T14:49:41;18.80;99.90
52675;DHT22;38569;52.722;6.440;2022-10-16T14:52:12;18.70;99.90
52675;DHT22;38569;52.722;6.440;2022-10-16T14:54:38;18.70;99.90
52675;DHT22;38569;52.722;6.440;2022-10-16T14:57:04;18.70;99.90
52675;DHT22;38569;52.722;6.440;2022-10-16T14:59:39;18.70;99.90
52675;DHT22;38569;52.722;6.440;2022-10-16T15:02:32;18.70;99.90
52675;DHT22;38569;52.722;6.440;2022-10-16T15:07:40;18.50;99.90
52675;DHT22;38569;52.722;6.440;2022-10-16T15:10:06;18.50;99.90
52675;DHT22;38569;52.722;6.440;2022-10-16T15:12:32;18.40;99.90
52675;DHT22;38569;52.722;6.440;2022-10-16T15:14:58;18.30;99.90
52675;DHT22;38569;52.722;6.440;2022-10-16T15:17:23;18.20;99.90
52675;DHT22;38569;52.722;6.440;2022-10-16T15:19:49;18.10;99.90
52675;DHT22;38569;52.722;6.440;2022-10-16T15:22:16;18.00;99.90
52675;DHT22;38569;52.722;6.440;2022-10-16T15:24:42;17.80;99.90
52675;DHT22;38569;52.722;6.440;2022-10-16T15:27:08;17.80;99.90
52675;DHT22;38569;52.722;6.440;2022-10-16T15:29:34;17.80;99.90
52675;DHT22;38569;52.722;6.440;2022-10-16T15:31:59;17.70;99.90
52675;DHT22;38569;52.722;6.440;2022-10-16T15:34:25;17.70;99.90
52675;DHT22;38569;52.722;6.440;2022-10-16T15:36:51;17.70;99.90
52675;DHT22;38569;52.722;6.440;2022-10-16T15:39:19;17.60;99.90
52675;DHT22;38569;52.722;6.440;2022-10-16T15:41:46;17.60;99.90
52675;DHT22;38569;52.722;6.440;2022-10-16T15:44:16;17.60;99.90
52675;DHT22;38569;52.722;6.440;2022-10-16T15:46:42;17.60;99.90
52675;DHT22;38569;52.722;6.440;2022-10-16T15:49:09;17.50;99.90
52675;DHT22;38569;52.722;6.440;2022-10-16T15:51:39;17.40;99.90
52675;DHT22;38569;52.722;6.440;2022-10-16T15:54:05;17.40;99.90
52675;DHT22;38569;52.722;6.440;2022-10-16T15:56:31;17.30;99.90
52675;DHT22;38569;52.722;6.440;2022-10-16T15:58:59;17.20;99.90
52675;DHT22;38569;52.722;6.440;2022-10-16T16:01:26;17.00;99.90
52675;DHT22;38569;52.722;6.440;2022-10-16T16:03:53;16.80;99.90
52675;DHT22;38569;52.722;6.440;2022-10-16T16:06:19;16.60;99.90
52675;DHT22;38569;52.722;6.440;2022-10-16T16:08:45;16.40;99.90
52675;DHT22;38569;52.722;6.440;2022-10-16T16:11:12;16.20;99.90
52675;DHT22;38569;52.722;6.440;2022-10-16T16:13:39;16.00;99.90
52675;DHT22;38569;52.722;6.440;2022-10-16T16:16:10;15.80;99.90
52675;DHT22;38569;52.722;6.440;2022-10-16T16:18:37;15.70;99.90
52675;DHT22;38569;52.722;6.440;2022-10-16T16:21:03;15.60;99.90
52675;DHT22;38569;52.722;6.440;2022-10-16T16:23:29;15.50;99.90
52675;DHT22;38569;52.722;6.440;2022-10-16T16:26:13;15.40;99.90
52675;DHT22;38569;52.722;6.440;2022-10-16T16:28:40;15.30;99.90
52675;DHT22;38569;52.722;6.440;2022-10-16T16:31:07;15.20;99.90
52675;DHT22;38569;52.722;6.440;2022-10-16T16:33:33;15.00;99.90
52675;DHT22;38569;52.722;6.440;2022-10-16T16:36:00;15.00;99.90
52675;DHT22;38569;52.722;6.440;2022-10-16T16:38:26;14.80;99.90
52675;DHT22;38569;52.722;6.440;2022-10-16T16:40:52;14.70;99.90
52675;DHT22;38569;52.722;6.440;2022-10-16T16:43:18;14.60;99.90
52675;DHT22;38569;52.722;6.440;2022-10-16T16:45:44;14.60;99.90
52675;DHT22;38569;52.722;6.440;2022-10-16T16:48:10;14.40;99.90
52675;DHT22;38569;52.722;6.440;2022-10-16T16:50:36;14.30;99.90
52675;DHT22;38569;52.722;6.440;2022-10-16T16:53:03;14.20;99.90
52675;DHT22;38569;52.722;6.440;2022-10-16T16:55:28;14.10;99.90
52675;DHT22;38569;52.722;6.440;2022-10-16T16:57:54;14.00;99.90
52675;DHT22;38569;52.722;6.440;2022-10-16T17:00:22;13.90;99.90
52675;DHT22;38569;52.722;6.440;2022-10-16T17:02:48;13.80;99.90
52675;DHT22;38569;52.722;6.440;2022-10-16T17:05:15;13.80;99.90
52675;DHT22;38569;52.722;6.440;2022-10-16T17:07:40;13.70;99.90
52675;DHT22;38569;52.722;6.440;2022-10-16T17:10:07;13.60;99.90
52675;DHT22;38569;52.722;6.440;2022-10-16T17:12:33;13.50;99.90
52675;DHT22;38569;52.722;6.440;2022-10-16T17:14:59;13.40;99.90
52675;DHT22;38569;52.722;6.440;2022-10-16T17:17:24;13.30;99.90
52675;DHT22;38569;52.722;6.440;2022-10-16T17:19:50;13.20;99.90
52675;DHT22;38569;52.722;6.440;2022-10-16T17:22:17;13.10;99.90
52675;DHT22;38569;52.722;6.440;2022-10-16T17:24:43;13.00;99.90
52675;DHT22;38569;52.722;6.440;2022-10-16T17:27:09;12.90;99.90
52675;DHT22;38569;52.722;6.440;2022-10-16T17:29:37;12.80;99.90
52675;DHT22;38569;52.722;6.440;2022-10-16T17:32:03;12.70;99.90